Time;durP1;ratioP1;P1;durP2;ratioP2;P2;SDS_P1;SDS_P2;PMS_P1;PMS_P2;Temp;Humidity;BMP_temperature;BMP_pressure;BME280_temperature;BME280_humidity;BME280_pressure;Samples;Min_cycle;Max_cycle;Signal;HPM_P1;HPM_P2
2021/12/07 00:00:27;;;;;;;31.10;14.65;;;;;;;-2.28;76.07;99176.75;5153351;27;20400;-58
2021/12/07 00:02:54;;;;;;;27.92;12.98;;;;;;;-2.24;75.69;99172.84;5153000;27;20058;-59
2021/12/07 00:05:20;;;;;;;29.15;14.85;;;;;;;-2.30;75.41;99174.28;5153295;27;20046;-58
2021/12/07 00:07:46;;;;;;;25.55;13.10;;;;;;;-2.31;75.51;99162.28;5152868;27;20044;-59
2021/12/07 00:10:13;;;;;;;27.67;12.50;;;;;;;-2.31;75.37;99170.06;5153191;27;20038;-57
2021/12/07 00:12:42;;;;;;;24.95;11.80;;;;;;;-2.31;75.53;99156.28;5152908;27;20046;-59
2021/12/07 00:15:12;;;;;;;26.58;12.70;;;;;;;-2.24;75.37;99152.06;5153128;27;20050;-58
2021/12/07 00:17:38;;;;;;;29.98;13.00;;;;;;;-2.24;75.71;99149.47;5133945;27;20041;-58
2021/12/07 00:20:10;;;;;;;26.75;11.48;;;;;;;-2.24;75.37;99146.06;5153146;27;20280;-58
2021/12/07 00:22:36;;;;;;;23.00;10.90;;;;;;;-2.25;75.36;99140.06;5153020;27;20061;-58
2021/12/07 00:25:02;;;;;;;24.42;11.25;;;;;;;-2.34;75.04;99136.66;5152819;27;20115;-57
2021/12/07 00:27:29;;;;;;;23.40;11.15;;;;;;;-2.34;75.31;99131.44;5151796;27;20038;-59
2021/12/07 00:29:55;;;;;;;23.90;12.20;;;;;;;-2.39;75.35;99128.53;5153005;27;20050;-57
2021/12/07 00:37:34;;;;;;;27.20;12.45;;;;;;;-2.30;76.27;99116.34;5152924;27;20063;-57
2021/12/07 00:40:04;;;;;;;25.20;13.18;;;;;;;-2.26;76.04;99120.28;5151440;27;20047;-58
2021/12/07 00:42:30;;;;;;;25.60;12.55;;;;;;;-2.21;75.80;99115.38;5133765;27;20043;-57
2021/12/07 00:44:56;;;;;;;27.67;12.27;;;;;;;-2.21;75.34;99115.38;5151546;27;20146;-57
2021/12/07 00:47:22;;;;;;;25.95;12.75;;;;;;;-2.28;75.83;99110.03;5151319;27;20095;-58
2021/12/07 00:49:48;;;;;;;26.15;14.15;;;;;;;-2.25;76.18;99108.91;5152440;27;20054;-58
2021/12/07 00:52:13;;;;;;;24.42;12.80;;;;;;;-2.25;75.81;99103.72;5152802;27;20049;-59
2021/12/07 00:54:39;;;;;;;28.17;12.95;;;;;;;-2.20;76.16;99105.84;5150766;27;20103;-58
2021/12/07 00:57:05;;;;;;;26.42;12.57;;;;;;;-2.16;76.16;99105.34;5152459;27;20031;-60
2021/12/07 00:59:32;;;;;;;28.75;13.73;;;;;;;-2.15;75.44;99101.75;5152623;27;20043;-58
2021/12/07 01:01:59;;;;;;;25.75;12.05;;;;;;;-2.11;75.84;99099.66;5155938;27;20045;-59
2021/12/07 01:04:27;;;;;;;33.53;13.52;;;;;;;-2.10;75.50;99096.88;5137713;27;20054;-58
2021/12/07 01:09:29;;;;;;;30.83;14.52;;;;;;;-2.07;75.72;99093.16;5154749;27;20046;-59
2021/12/07 01:25:44;;;;;;;32.05;14.35;;;;;;;-2.14;76.31;99080.03;5153661;27;20043;-59
2021/12/07 01:28:29;;;;;;;26.27;13.45;;;;;;;-2.17;76.63;99075.16;5136683;27;20408;-60
2021/12/07 01:31:23;;;;;;;30.23;13.77;;;;;;;-2.18;76.46;99078.72;5154747;27;20042;-57
2021/12/07 01:39:49;;;;;;;31.92;14.75;;;;;;;-2.13;76.55;99050.47;5134814;27;20053;-57
2021/12/07 01:48:05;;;;;;;30.08;14.02;;;;;;;-2.12;75.89;99043.50;5136839;27;20129;-58
2021/12/07 01:50:46;;;;;;;31.75;14.27;;;;;;;-2.06;76.14;99048.03;5154284;27;20517;-58
2021/12/07 02:00:52;;;;;;;31.92;14.90;;;;;;;-1.95;75.17;99047.69;5136769;27;20141;-57
2021/12/07 02:03:18;;;;;;;28.05;13.73;;;;;;;-1.89;75.52;99030.63;5154081;27;20049;-58
2021/12/07 02:05:44;;;;;;;27.67;14.25;;;;;;;-1.86;75.09;99023.31;5153179;27;20061;-55
2021/12/07 02:08:10;;;;;;;27.80;13.45;;;;;;;-1.80;75.33;99018.44;5136252;27;20041;-59
2021/12/07 02:10:36;;;;;;;28.13;13.77;;;;;;;-1.79;74.84;99012.25;5153870;27;20042;-59
2021/12/07 02:13:19;;;;;;;30.35;13.77;;;;;;;-1.79;75.70;99007.88;5152529;27;20039;-58
2021/12/07 02:15:46;;;;;;;30.27;12.93;;;;;;;-1.83;75.00;99006.59;5153906;27;20444;-57
2021/12/07 02:18:12;;;;;;;25.95;12.85;;;;;;;-1.75;75.40;99011.75;5153815;27;20038;-60
2021/12/07 02:20:38;;;;;;;31.60;14.52;;;;;;;-1.76;75.47;99006.75;5155062;27;20047;-58
2021/12/07 02:23:04;;;;;;;32.38;14.45;;;;;;;-1.74;75.45;99002.16;5152909;27;20065;-60
2021/12/07 02:25:32;;;;;;;33.45;14.82;;;;;;;-1.77;75.74;98998.13;5154635;27;20198;-58
2021/12/07 02:27:58;;;;;;;29.05;13.35;;;;;;;-1.70;75.77;99006.88;5153401;27;20062;-59
2021/12/07 02:30:26;;;;;;;33.20;14.40;;;;;;;-1.75;75.91;99003.97;5154889;27;20515;-58
2021/12/07 02:32:54;;;;;;;23.83;12.23;;;;;;;-1.72;75.66;99010.63;5154345;27;20062;-58
2021/12/07 02:35:27;;;;;;;30.48;13.55;;;;;;;-1.71;75.80;99012.22;5153330;27;20498;-58
2021/12/07 02:37:58;;;;;;;25.73;12.63;;;;;;;-1.71;76.20;99000.03;5153252;27;20167;-58
2021/12/07 02:40:25;;;;;;;28.27;13.30;;;;;;;-1.75;76.24;98992.75;5153173;27;20095;-58
2021/12/07 02:42:51;;;;;;;28.92;14.50;;;;;;;-1.75;76.39;98985.78;5153677;27;20042;-58
2021/12/07 02:45:19;;;;;;;23.85;13.68;;;;;;;-1.77;76.30;98979.94;5153214;27;20408;-58
2021/12/07 02:47:45;;;;;;;26.00;13.18;;;;;;;-1.86;76.25;98988.72;5153022;27;20042;-58
2021/12/07 02:50:13;;;;;;;27.60;13.63;;;;;;;-1.88;76.71;98975.94;5152980;27;20080;-58
2021/12/07 02:52:39;;;;;;;27.80;14.20;;;;;;;-1.93;77.29;98977.41;5152548;27;20042;-58
2021/12/07 02:55:08;;;;;;;27.10;14.35;;;;;;;-1.96;77.48;98973.34;5152903;27;20038;-59
2021/12/07 02:57:34;;;;;;;30.05;14.75;;;;;;;-1.90;77.74;98974.47;5153130;27;20054;-59
2021/12/07 03:00:11;;;;;;;25.73;13.45;;;;;;;-1.88;77.37;98977.72;5152877;27;20163;-58
2021/12/07 03:02:45;;;;;;;21.92;13.20;;;;;;;-1.87;77.43;98968.94;5152166;27;20443;-58
2021/12/07 03:27:01;;;;;;;28.60;12.55;;;;;;;-1.81;77.23;98915.50;5153458;27;20043;-58
2021/12/07 03:29:27;;;;;;;28.73;13.77;;;;;;;-1.78;77.40;98915.97;5151746;27;20125;-58
2021/12/07 03:31:53;;;;;;;27.67;13.05;;;;;;;-1.74;76.87;98906.84;5152133;27;20050;-59
2021/12/07 03:34:19;;;;;;;25.17;13.52;;;;;;;-1.77;77.34;98906.38;5134568;27;20103;-59
2021/12/07 03:36:45;;;;;;;23.23;13.02;;;;;;;-1.83;76.97;98889.66;5151923;27;20549;-58
2021/12/07 03:39:11;;;;;;;25.95;13.80;;;;;;;-1.75;77.32;98881.03;5151361;27;20099;-57
2021/12/07 03:41:37;;;;;;;23.85;11.05;;;;;;;-1.81;76.67;98887.72;5151525;27;20122;-58
2021/12/07 03:44:04;;;;;;;23.42;12.70;;;;;;;-1.86;76.89;98870.03;5151997;27;20416;-58
2021/12/07 03:46:30;;;;;;;27.83;12.70;;;;;;;-1.84;76.82;98875.88;5152158;27;20046;-58
2021/12/07 03:48:56;;;;;;;23.02;12.40;;;;;;;-1.78;76.79;98868.38;5151702;27;20053;-59
2021/12/07 03:51:24;;;;;;;25.83;13.27;;;;;;;-1.83;76.75;98866.28;5151714;27;20074;-59
2021/12/07 03:53:50;;;;;;;29.40;14.52;;;;;;;-1.85;76.63;98858.69;5151797;27;20034;-59
2021/12/07 03:56:16;;;;;;;27.15;13.65;;;;;;;-1.86;77.16;98853.63;5151628;27;20045;-58
2021/12/07 03:58:43;;;;;;;25.38;12.75;;;;;;;-1.86;76.82;98861.44;5151046;27;20031;-59
2021/12/07 04:01:11;;;;;;;26.48;11.95;;;;;;;-1.85;76.83;98860.47;5151899;27;20407;-56
2021/12/07 04:03:38;;;;;;;25.15;13.52;;;;;;;-1.86;76.60;98859.63;5151352;27;20111;-59
2021/12/07 04:06:06;;;;;;;20.95;12.02;;;;;;;-1.79;76.63;98858.94;5151578;27;20039;-57
2021/12/07 04:08:36;;;;;;;24.98;12.88;;;;;;;-1.80;76.56;98852.16;5151780;27;20181;-58
2021/12/07 04:11:03;;;;;;;25.30;13.00;;;;;;;-1.80;76.32;98852.94;5134072;27;20495;-60
2021/12/07 04:13:29;;;;;;;26.35;12.65;;;;;;;-1.75;76.72;98852.44;5152639;27;20046;-59
2021/12/07 04:15:57;;;;;;;23.23;12.45;;;;;;;-1.77;76.04;98847.41;5151391;27;20054;-58
2021/12/07 04:18:23;;;;;;;23.65;12.13;;;;;;;-1.80;76.11;98844.34;5132222;27;20092;-59
2021/12/07 04:20:49;;;;;;;24.33;12.63;;;;;;;-1.76;76.90;98840.44;5132452;27;20143;-59
2021/12/07 04:23:15;;;;;;;24.75;12.77;;;;;;;-1.68;76.44;98838.59;5114050;28;20416;-59
2021/12/07 04:25:41;;;;;;;25.63;12.40;;;;;;;-1.62;76.13;98835.31;5130913;27;20035;-57
2021/12/07 04:28:07;;;;;;;22.17;12.07;;;;;;;-1.63;75.88;98825.09;5124752;28;20412;-60
2021/12/07 04:30:36;;;;;;;20.45;11.35;;;;;;;-1.65;75.88;98822.69;5132301;27;20044;-58
2021/12/07 04:33:04;;;;;;;22.48;11.60;;;;;;;-1.68;76.35;98812.59;5132076;27;20119;-57
2021/12/07 04:35:30;;;;;;;24.08;12.23;;;;;;;-1.70;76.67;98813.78;5137675;27;20046;-57
2021/12/07 04:37:56;;;;;;;22.33;11.95;;;;;;;-1.72;76.73;98810.53;5156611;27;20412;-59
2021/12/07 04:40:25;;;;;;;24.20;12.98;;;;;;;-1.64;77.15;98802.69;5156335;27;20045;-58
2021/12/07 04:42:51;;;;;;;23.98;12.50;;;;;;;-1.69;76.47;98795.41;5155528;27;20121;-58
2021/12/07 04:45:30;;;;;;;27.55;12.57;;;;;;;-1.66;76.82;98789.84;5156935;27;20035;-58
2021/12/07 04:57:37;;;;;;;28.17;13.95;;;;;;;-1.69;77.06;98784.19;5156187;27;20054;-58
2021/12/07 04:58:56;;;;;;;19.48;11.00;;;;;;;-1.64;77.19;98780.09;5155084;27;20038;-59
2021/12/07 05:01:23;;;;;;;25.02;11.98;;;;;;;-1.66;76.84;98766.47;5156356;27;20407;-59
2021/12/07 05:03:51;;;;;;;24.77;12.90;;;;;;;-1.68;77.32;98775.41;5156343;27;20068;-58
2021/12/07 05:06:19;;;;;;;22.77;11.65;;;;;;;-1.65;77.52;98775.91;5155448;27;20039;-58
2021/12/07 05:08:49;;;;;;;23.75;12.52;;;;;;;-1.58;77.83;98770.00;5155930;27;20034;-58
2021/12/07 05:13:57;;;;;;;24.13;12.25;;;;;;;-1.63;78.13;98766.13;5155594;27;20491;-58
2021/12/07 05:23:52;;;;;;;27.45;12.63;;;;;;;-1.52;77.68;98761.50;5155819;27;20125;-60
2021/12/07 05:24:37;;;;;;;21.13;12.32;;;;;;;-1.49;78.14;98767.16;5155062;27;20053;-59
2021/12/07 05:40:22;;;;;;;20.95;13.18;;;;;;;-1.50;78.53;98755.16;5155140;27;20087;-57
2021/12/07 05:42:49;;;;;;;26.88;13.23;;;;;;;-1.48;78.46;98747.16;5155321;27;20038;-56
2021/12/07 05:45:18;;;;;;;22.60;12.25;;;;;;;-1.49;78.76;98745.56;5151390;27;20062;-56
2021/12/07 05:47:44;;;;;;;23.50;12.63;;;;;;;-1.46;78.81;98745.19;5145957;27;20448;-57
2021/12/07 05:50:13;;;;;;;20.88;11.65;;;;;;;-1.49;78.48;98737.75;5152854;27;20102;-58
2021/12/07 05:52:38;;;;;;;19.83;12.02;;;;;;;-1.47;78.75;98735.78;5153982;27;20065;-57
2021/12/07 05:55:05;;;;;;;24.35;12.32;;;;;;;-1.44;78.66;98725.84;5153612;27;20074;-59
2021/12/07 05:57:31;;;;;;;23.83;12.82;;;;;;;-1.38;78.36;98722.53;5153047;27;20027;-57
2021/12/07 05:59:57;;;;;;;23.60;12.05;;;;;;;-1.27;78.35;98723.88;5152445;27;20042;-56
2021/12/07 06:02:23;;;;;;;20.65;10.80;;;;;;;-1.34;77.80;98722.19;5149036;27;20042;-58
2021/12/07 06:04:49;;;;;;;26.20;12.80;;;;;;;-1.31;78.66;98727.03;5148911;27;20039;-58
2021/12/07 06:07:14;;;;;;;24.08;12.43;;;;;;;-1.31;78.24;98727.84;5151241;27;20129;-59
2021/12/07 06:09:40;;;;;;;25.85;13.30;;;;;;;-1.28;78.18;98716.28;5148653;27;20046;-58
2021/12/07 06:12:06;;;;;;;25.02;13.55;;;;;;;-1.39;78.15;98707.09;5150281;27;20046;-61
2021/12/07 06:14:42;;;;;;;26.75;13.15;;;;;;;-1.29;78.64;98719.88;5152887;27;20047;-57
2021/12/07 06:17:08;;;;;;;27.27;13.52;;;;;;;-1.26;78.11;98712.53;5151338;27;20066;-58
2021/12/07 06:19:34;;;;;;;24.38;13.35;;;;;;;-1.22;77.72;98724.16;5151328;27;20256;-57
2021/12/07 06:21:59;;;;;;;28.45;14.18;;;;;;;-1.23;77.30;98716.56;5153219;27;20500;-59
2021/12/07 06:24:25;;;;;;;31.05;15.57;;;;;;;-1.20;77.97;98716.22;5151538;27;20418;-57
2021/12/07 06:26:51;;;;;;;29.88;15.90;;;;;;;-1.20;77.90;98714.41;5151431;27;20095;-59
2021/12/07 06:29:17;;;;;;;35.08;17.58;;;;;;;-1.17;78.37;98713.25;5150122;27;20046;-60
2021/12/07 06:31:43;;;;;;;32.72;16.00;;;;;;;-1.13;78.13;98713.69;5151566;27;20069;-58
2021/12/07 06:34:10;;;;;;;43.58;18.08;;;;;;;-1.12;77.86;98712.69;5152246;27;20047;-57
2021/12/07 06:36:37;;;;;;;31.27;16.13;;;;;;;-1.13;77.73;98711.09;5153209;27;20041;-58
2021/12/07 06:39:08;;;;;;;34.20;15.82;;;;;;;-1.14;77.89;98710.28;5152248;27;20061;-57
2021/12/07 06:41:34;;;;;;;29.15;15.82;;;;;;;-1.15;77.93;98709.50;5152504;27;20614;-57
2021/12/07 06:44:00;;;;;;;29.23;14.65;;;;;;;-1.26;78.53;98698.72;5153069;27;20050;-58
2021/12/07 06:46:26;;;;;;;28.17;15.75;;;;;;;-1.16;78.22;98707.84;5148243;27;20049;-59
2021/12/07 06:48:52;;;;;;;33.42;16.92;;;;;;;-1.18;78.55;98696.84;5150190;27;20145;-58
2021/12/07 06:51:18;;;;;;;30.80;16.33;;;;;;;-1.13;78.01;98698.88;5151836;27;20583;-57
2021/12/07 06:53:44;;;;;;;27.17;14.55;;;;;;;-1.11;77.79;98696.94;5151864;27;20129;-54
2021/12/07 06:56:11;;;;;;;30.33;15.35;;;;;;;-1.02;78.27;98690.66;5150986;27;20481;-55
2021/12/07 06:58:37;;;;;;;29.58;15.45;;;;;;;-1.04;77.82;98691.81;5148510;27;20046;-57
2021/12/07 07:01:06;;;;;;;28.70;14.40;;;;;;;-1.06;77.86;98686.81;5148079;27;20049;-58
2021/12/07 07:03:35;;;;;;;33.22;15.80;;;;;;;-1.07;78.51;98690.38;5148142;27;20408;-57
2021/12/07 07:06:02;;;;;;;31.00;15.75;;;;;;;-1.04;78.43;98691.81;5148277;27;20448;-58
2021/12/07 07:08:28;;;;;;;27.67;15.43;;;;;;;-1.06;78.46;98684.19;5150161;27;20492;-58
2021/12/07 07:10:54;;;;;;;27.02;14.70;;;;;;;-1.01;78.48;98676.63;5150844;27;20106;-57
2021/12/07 07:13:20;;;;;;;27.02;14.30;;;;;;;-0.96;78.28;98676.09;5148787;27;20038;-59
2021/12/07 07:15:46;;;;;;;26.77;14.80;;;;;;;-0.93;78.01;98675.75;5149409;27;20042;-58
2021/12/07 07:18:11;;;;;;;28.88;14.80;;;;;;;-0.87;78.55;98676.81;5136352;27;20591;-61
2021/12/07 07:20:37;;;;;;;27.88;15.00;;;;;;;-0.79;78.39;98679.34;5149530;27;20030;-58
2021/12/07 07:23:04;;;;;;;26.45;14.52;;;;;;;-0.77;77.85;98683.34;5149849;27;20500;-59
2021/12/07 07:25:30;;;;;;;26.60;13.57;;;;;;;-0.69;78.23;98678.03;5148634;27;20448;-60
2021/12/07 07:27:57;;;;;;;27.35;13.70;;;;;;;-0.66;77.43;98674.28;5148916;27;20126;-56
2021/12/07 07:30:24;;;;;;;22.75;13.68;;;;;;;-0.55;77.90;98671.19;5148559;27;20823;-58
2021/12/07 07:32:50;;;;;;;24.85;13.52;;;;;;;-0.50;77.19;98673.25;5126917;27;20415;-60
2021/12/07 07:35:16;;;;;;;21.38;12.45;;;;;;;-0.41;77.02;98676.53;5145636;27;20121;-59
2021/12/07 07:37:43;;;;;;;21.95;12.50;;;;;;;-0.41;76.89;98671.34;5151448;27;20058;-61
2021/12/07 07:40:14;;;;;;;20.33;11.27;;;;;;;-0.34;76.46;98675.63;5148284;27;20095;-56
2021/12/07 07:42:41;;;;;;;19.48;11.43;;;;;;;-0.32;77.18;98662.44;5150859;27;20035;-60
2021/12/07 07:45:27;;;;;;;19.30;11.40;;;;;;;-0.24;76.54;98657.09;5147356;27;20481;-58
2021/12/07 07:47:54;;;;;;;20.42;11.30;;;;;;;-0.25;76.47;98666.72;5150271;27;20499;-61
2021/12/07 07:50:21;;;;;;;18.17;10.20;;;;;;;-0.24;76.20;98647.50;5149064;27;20043;-57
2021/12/07 07:52:47;;;;;;;20.70;11.15;;;;;;;-0.22;76.22;98651.72;5149470;27;20035;-60
2021/12/07 07:55:13;;;;;;;19.85;11.30;;;;;;;-0.20;76.29;98647.13;5149380;27;20046;-59
2021/12/07 07:57:40;;;;;;;13.95;8.35;;;;;;;-0.19;75.19;98644.31;5149327;27;20047;-59
2021/12/07 08:00:08;;;;;;;17.60;9.07;;;;;;;-0.20;75.62;98637.50;5148666;27;20035;-59
2021/12/07 08:02:39;;;;;;;15.45;8.85;;;;;;;-0.32;75.25;98645.00;5146884;27;20174;-59
2021/12/07 08:05:05;;;;;;;16.40;8.85;;;;;;;-0.37;76.04;98647.34;5147885;27;20054;-59
2021/12/07 08:07:31;;;;;;;16.67;8.88;;;;;;;-0.35;75.90;98658.41;5147193;27;20041;-59
2021/12/07 08:09:56;;;;;;;12.45;8.25;;;;;;;-0.40;76.32;98636.50;5148865;27;20062;-56
2021/12/07 08:12:22;;;;;;;15.63;8.98;;;;;;;-0.32;76.17;98639.00;5151896;27;20556;-59
2021/12/07 08:14:48;;;;;;;14.45;8.27;;;;;;;-0.26;76.43;98633.84;5151688;27;20500;-59
2021/12/07 08:17:14;;;;;;;12.90;7.35;;;;;;;-0.25;75.22;98629.44;5151683;27;20523;-59
2021/12/07 08:19:40;;;;;;;11.30;7.25;;;;;;;-0.22;75.90;98623.84;5152020;27;20125;-60
2021/12/07 08:22:06;;;;;;;7.40;5.75;;;;;;;-0.18;75.82;98629.50;5153278;27;20054;-61
2021/12/07 08:24:34;;;;;;;10.10;6.50;;;;;;;-0.19;75.68;98633.09;5133667;27;20078;-58
2021/12/07 08:27:00;;;;;;;16.63;7.40;;;;;;;-0.20;76.16;98637.50;5152590;27;20068;-61
2021/12/07 08:29:26;;;;;;;16.08;7.43;;;;;;;-0.16;75.32;98635.34;5151477;27;20046;-59
2021/12/07 08:31:52;;;;;;;11.38;7.10;;;;;;;-0.07;75.56;98626.41;5151988;27;20083;-60
2021/12/07 08:34:17;;;;;;;10.68;6.55;;;;;;;-0.08;75.45;98625.59;5152790;27;20496;-60
2021/12/07 08:36:43;;;;;;;11.07;6.15;;;;;;;-0.11;75.36;98620.75;5151838;27;20031;-60
2021/12/07 08:39:09;;;;;;;12.23;6.13;;;;;;;-0.06;75.30;98617.56;5153457;27;20495;-61
2021/12/07 08:41:35;;;;;;;12.35;7.03;;;;;;;-0.06;74.92;98623.63;5150748;27;20503;-61
2021/12/07 08:44:01;;;;;;;11.60;6.38;;;;;;;-0.10;75.18;98611.94;5151420;27;20053;-60
2021/12/07 08:46:28;;;;;;;9.88;5.88;;;;;;;-0.05;75.34;98627.03;5150406;27;20038;-61
2021/12/07 08:48:54;;;;;;;14.80;7.43;;;;;;;-0.06;75.69;98620.19;5151266;27;20049;-61
2021/12/07 08:51:20;;;;;;;16.98;8.32;;;;;;;0.06;75.77;98613.50;5152176;27;20035;-60
2021/12/07 08:53:54;;;;;;;12.90;7.30;;;;;;;0.13;74.99;98609.13;5151817;27;20137;-60
2021/12/07 09:01:50;;;;;;;11.40;6.53;;;;;;;0.05;75.14;98611.06;5151702;27;20087;-61
2021/12/07 09:04:17;;;;;;;18.48;9.15;;;;;;;0.09;75.52;98602.69;5152044;27;20043;-60
2021/12/07 09:06:45;;;;;;;13.00;8.27;;;;;;;0.06;75.13;98603.06;5150880;27;20038;-64
2021/12/07 09:09:11;;;;;;;13.10;7.13;;;;;;;0.05;75.42;98598.03;5151505;27;20050;-61
2021/12/07 09:11:37;;;;;;;35.85;15.10;;;;;;;0.08;75.30;98589.84;5151980;27;20042;-62
2021/12/07 09:14:02;;;;;;;27.00;17.88;;;;;;;0.16;75.97;98594.91;5154675;27;20043;-59
2021/12/07 09:16:28;;;;;;;15.82;9.68;;;;;;;0.17;75.44;98597.31;5151813;27;20084;-60
2021/12/07 09:18:54;;;;;;;12.07;7.50;;;;;;;0.15;75.61;98594.13;5152300;27;20050;-61
2021/12/07 09:21:20;;;;;;;14.38;7.47;;;;;;;0.13;74.77;98582.25;5151760;27;20098;-60
2021/12/07 09:23:47;;;;;;;12.77;7.43;;;;;;;0.12;75.47;98580.63;5153262;27;20041;-60
2021/12/07 09:26:13;;;;;;;16.58;7.82;;;;;;;0.23;76.20;98572.28;5152018;27;20035;-61
2021/12/07 09:28:39;;;;;;;14.70;8.48;;;;;;;0.43;75.18;98585.47;5153640;27;20074;-59
2021/12/07 09:31:07;;;;;;;11.15;7.28;;;;;;;0.49;75.07;98578.69;5150699;27;20060;-61
2021/12/07 09:33:32;;;;;;;19.25;10.50;;;;;;;0.49;74.71;98569.03;5153629;27;20503;-60
2021/12/07 09:35:59;;;;;;;33.70;17.02;;;;;;;0.56;74.16;98564.69;5152211;27;20099;-60
2021/12/07 09:38:25;;;;;;;24.15;14.10;;;;;;;0.67;74.83;98555.50;5152730;27;20453;-61
2021/12/07 09:40:52;;;;;;;16.08;9.23;;;;;;;0.63;74.28;98549.88;5153086;27;20403;-59
2021/12/07 09:43:19;;;;;;;13.80;8.55;;;;;;;0.61;74.59;98559.69;5148758;27;20503;-61
2021/12/07 09:45:45;;;;;;;20.50;8.80;;;;;;;0.61;73.76;98561.47;5150649;27;20042;-59
2021/12/07 09:48:11;;;;;;;16.38;8.93;;;;;;;0.56;74.65;98551.66;5150174;27;20035;-60
2021/12/07 09:50:40;;;;;;;14.98;8.13;;;;;;;0.50;74.37;98562.03;5151874;27;20046;-60
2021/12/07 09:53:08;;;;;;;14.27;9.00;;;;;;;0.47;74.44;98565.81;5130551;27;20486;-60
2021/12/07 09:55:35;;;;;;;18.63;8.60;;;;;;;0.25;75.12;98557.28;5152368;27;20042;-60
2021/12/07 09:58:02;;;;;;;13.93;8.38;;;;;;;0.14;75.38;98547.38;5149517;27;20061;-61
2021/12/07 10:00:28;;;;;;;12.52;8.15;;;;;;;0.20;75.85;98570.06;5149451;27;20039;-62
2021/12/07 10:02:54;;;;;;;14.88;8.85;;;;;;;0.27;76.45;98552.69;5148844;27;20039;-60
2021/12/07 10:05:21;;;;;;;15.32;8.50;;;;;;;0.29;75.42;98552.47;5150274;27;20049;-61
2021/12/07 10:07:49;;;;;;;18.58;8.48;;;;;;;0.27;75.58;98559.72;5150609;27;20045;-62
2021/12/07 10:10:24;;;;;;;17.10;8.52;;;;;;;0.27;75.75;98551.88;5151619;27;20053;-60
2021/12/07 10:12:50;;;;;;;17.25;8.80;;;;;;;0.29;75.84;98561.09;5152532;27;20042;-59
2021/12/07 10:15:17;;;;;;;13.60;8.20;;;;;;;0.30;75.61;98548.91;5152966;27;20038;-59
2021/12/07 10:17:43;;;;;;;13.02;8.75;;;;;;;0.28;75.87;98545.66;5152900;27;20031;-57
2021/12/07 10:20:39;;;;;;;22.35;9.57;;;;;;;0.30;76.58;98549.69;5149577;27;20043;-56
2021/12/07 10:23:28;;;;;;;18.60;9.63;;;;;;;0.31;76.63;98563.53;5149585;27;20038;-57
2021/12/07 10:26:17;;;;;;;17.67;9.20;;;;;;;0.38;77.08;98543.50;5140844;27;20058;-56
2021/12/07 10:28:47;;;;;;;19.23;9.02;;;;;;;0.39;77.04;98537.31;5152323;27;20606;-56
2021/12/07 10:31:27;;;;;;;19.55;9.43;;;;;;;0.34;76.71;98547.50;5150628;27;20034;-56
2021/12/07 10:34:03;;;;;;;17.43;11.07;;;;;;;0.37;77.43;98540.09;5151318;27;20415;-56
2021/12/07 10:36:36;;;;;;;23.00;11.90;;;;;;;0.38;77.42;98541.72;5153342;27;20099;-56
2021/12/07 10:39:21;;;;;;;19.35;12.35;;;;;;;0.42;77.47;98545.56;5151735;27;20403;-59
2021/12/07 10:41:53;;;;;;;20.92;12.30;;;;;;;0.41;77.43;98549.16;5151175;27;20516;-56
2021/12/07 10:44:22;;;;;;;19.52;9.88;;;;;;;0.45;77.22;98552.19;5150684;27;20107;-53
2021/12/07 10:46:58;;;;;;;16.58;10.30;;;;;;;0.48;76.90;98554.41;5152465;27;20042;-58
2021/12/07 10:49:46;;;;;;;25.42;11.63;;;;;;;0.51;77.17;98561.84;5152923;27;20057;-60
2021/12/07 10:52:28;;;;;;;20.08;11.65;;;;;;;0.52;77.13;98560.03;5150029;27;20049;-55
2021/12/07 10:54:54;;;;;;;22.15;11.68;;;;;;;0.48;76.87;98546.59;5144120;27;20039;-57
2021/12/07 10:57:23;;;;;;;17.10;10.82;;;;;;;0.45;77.81;98546.97;5149442;27;20057;-58
2021/12/07 10:59:54;;;;;;;22.75;10.57;;;;;;;0.41;77.31;98545.72;5151218;27;20053;-59
2021/12/07 11:02:21;;;;;;;21.52;10.88;;;;;;;0.43;77.92;98541.13;5148870;27;20444;-57
2021/12/07 11:04:48;;;;;;;15.40;9.75;;;;;;;0.49;77.88;98545.56;5146745;27;20035;-58
2021/12/07 11:07:24;;;;;;;18.45;9.88;;;;;;;0.55;77.10;98546.63;5148937;27;20031;-59
2021/12/07 11:12:51;;;;;;;16.83;9.23;;;;;;;0.49;77.64;98539.56;5150013;27;20057;-57
2021/12/07 11:15:23;;;;;;;18.48;9.65;;;;;;;0.46;78.03;98543.34;5149976;27;20039;-56
2021/12/07 11:17:51;;;;;;;17.17;10.63;;;;;;;0.47;78.08;98539.75;5148354;27;20125;-55
2021/12/07 11:20:17;;;;;;;18.52;9.45;;;;;;;0.51;78.12;98540.19;5131453;27;20049;-57
2021/12/07 11:22:47;;;;;;;15.50;9.80;;;;;;;0.57;77.45;98550.63;5147733;27;20066;-59
2021/12/07 11:25:52;;;;;;;22.20;10.15;;;;;;;0.52;77.75;98533.97;5144529;27;20047;-59
2021/12/07 11:31:37;;;;;;;18.45;9.05;;;;;;;0.53;77.13;98539.00;5151509;27;20133;-60
2021/12/07 11:34:19;;;;;;;14.48;9.55;;;;;;;0.55;77.77;98538.78;5152444;27;20219;-61
2021/12/07 11:36:46;;;;;;;19.42;10.20;;;;;;;0.50;77.47;98530.72;5151589;27;20303;-60
2021/12/07 11:39:33;;;;;;;20.52;10.50;;;;;;;0.48;78.11;98533.53;5151202;27;20483;-60
2021/12/07 11:42:03;;;;;;;16.65;9.73;;;;;;;0.51;78.31;98530.56;5151831;27;20691;-61
2021/12/07 11:44:30;;;;;;;17.98;9.57;;;;;;;0.54;77.85;98527.56;5152644;27;20047;-61
2021/12/07 11:46:59;;;;;;;20.25;10.50;;;;;;;0.52;78.43;98534.75;5150022;27;20038;-61
2021/12/07 11:49:28;;;;;;;19.23;10.50;;;;;;;0.49;78.50;98542.97;5150967;27;20038;-60
2021/12/07 11:51:57;;;;;;;20.98;10.57;;;;;;;0.52;78.53;98539.97;5151427;27;20532;-60
2021/12/07 11:54:27;;;;;;;21.73;10.73;;;;;;;0.51;78.64;98543.59;5151149;27;20093;-61
2021/12/07 11:56:53;;;;;;;23.70;9.85;;;;;;;0.54;78.40;98529.38;5151673;27;20050;-61
2021/12/07 11:59:19;;;;;;;20.75;11.23;;;;;;;0.58;79.16;98536.59;5151622;27;20469;-60
2021/12/07 12:01:47;;;;;;;20.50;11.05;;;;;;;0.57;78.53;98537.59;5148969;27;20076;-59
2021/12/07 12:04:15;;;;;;;25.00;11.77;;;;;;;0.54;79.30;98535.38;5149177;27;20138;-59
2021/12/07 12:06:43;;;;;;;26.52;12.20;;;;;;;0.58;78.96;98541.81;5149682;27;20121;-61
2021/12/07 12:09:09;;;;;;;21.75;11.85;;;;;;;0.58;78.87;98539.19;5150445;27;20130;-60
2021/12/07 12:12:00;;;;;;;27.17;12.35;;;;;;;0.56;79.13;98553.44;5149555;27;20470;-60
2021/12/07 12:14:41;;;;;;;23.48;12.98;;;;;;;0.51;79.11;98548.81;5148591;27;20131;-59
2021/12/07 12:17:13;;;;;;;26.48;11.32;;;;;;;0.51;79.67;98548.00;5151053;27;20526;-61
2021/12/07 12:20:00;;;;;;;22.95;10.32;;;;;;;0.51;78.90;98561.84;5150451;27;20050;-59
2021/12/07 12:22:35;;;;;;;24.10;10.52;;;;;;;0.51;79.88;98561.84;5143738;27;20035;-61
2021/12/07 12:25:05;;;;;;;16.02;9.95;;;;;;;0.50;79.66;98562.84;5150877;27;20039;-61
2021/12/07 12:27:33;;;;;;;16.55;8.93;;;;;;;0.52;79.67;98566.06;5149962;27;20049;-60
2021/12/07 12:30:24;;;;;;;21.83;10.65;;;;;;;0.55;79.85;98564.88;5148825;27;20495;-62
2021/12/07 12:32:54;;;;;;;;;;;;;;;0.60;79.23;98560.69;5150266;27;20074;-61
2021/12/07 12:35:40;;;;;;;14.80;9.65;;;;;;;0.57;79.56;98568.91;5150316;27;19923;-60
2021/12/07 12:38:19;;;;;;;22.25;9.85;;;;;;;0.59;79.66;98559.09;5149623;27;20039;-61
2021/12/07 12:41:09;;;;;;;22.52;10.63;;;;;;;0.56;79.42;98566.47;5149101;27;20049;-61
2021/12/07 12:43:49;;;;;;;21.27;10.27;;;;;;;0.61;79.77;98561.47;5150174;27;20119;-62
2021/12/07 12:46:19;;;;;;;15.57;9.25;;;;;;;0.64;79.31;98563.72;5146417;27;20043;-61
2021/12/07 12:48:52;;;;;;;18.25;9.57;;;;;;;0.55;79.10;98562.25;5150972;27;20046;-61
2021/12/07 12:51:18;;;;;;;16.70;9.07;;;;;;;0.58;79.77;98561.88;5151181;27;20450;-60
2021/12/07 12:53:46;;;;;;;17.25;9.75;;;;;;;0.53;80.39;98567.69;5148347;27;20517;-60
2021/12/07 12:56:23;;;;;;;17.20;9.77;;;;;;;0.58;80.27;98565.28;5151656;27;20560;-61
2021/12/07 12:59:02;;;;;;;17.08;10.07;;;;;;;0.66;80.04;98565.13;5153768;27;20031;-61
2021/12/07 13:01:35;;;;;;;15.88;9.15;;;;;;;0.55;nan;98568.28;5152999;27;20042;-61
2021/12/07 13:04:26;;;;;;;25.77;11.13;;;;;;;0.58;80.26;98554.03;5152492;27;20050;-61
2021/12/07 13:09:43;;;;;;;15.75;8.43;;;;;;;0.65;79.31;98553.09;5152876;27;20434;-57
2021/12/07 13:12:12;;;;;;;17.05;9.70;;;;;;;0.70;80.53;98552.50;5151366;27;20074;-59
2021/12/07 13:14:37;;;;;;;21.95;10.05;;;;;;;0.78;79.92;98543.72;5151559;27;20039;-59
2021/12/07 13:17:08;;;;;;;16.10;9.27;;;;;;;0.78;79.62;98548.94;5151178;27;20038;-59